sensor_id;sensor_type;location;lat;lon;timestamp;P1;durP1;ratioP1;P2;durP2;ratioP2
2522;SDS011;1272;53.332;9.860;2023-03-23T00:01:20;8.77;;;7.90;;
2522;SDS011;1272;53.332;9.860;2023-03-23T00:03:47;11.93;;;9.07;;
2522;SDS011;1272;53.332;9.860;2023-03-23T00:06:15;10.47;;;8.70;;
2522;SDS011;1272;53.332;9.860;2023-03-23T00:08:46;16.10;;;10.33;;
2522;SDS011;1272;53.332;9.860;2023-03-23T00:11:15;13.13;;;10.10;;
2522;SDS011;1272;53.332;9.860;2023-03-23T00:13:46;11.10;;;10.10;;
2522;SDS011;1272;53.332;9.860;2023-03-23T00:16:16;15.90;;;12.80;;
2522;SDS011;1272;53.332;9.860;2023-03-23T00:18:51;15.70;;;12.20;;
2522;SDS011;1272;53.332;9.860;2023-03-23T00:21:17;12.50;;;10.80;;
2522;SDS011;1272;53.332;9.860;2023-03-23T00:23:44;14.70;;;12.03;;
2522;SDS011;1272;53.332;9.860;2023-03-23T00:26:10;15.03;;;13.23;;
2522;SDS011;1272;53.332;9.860;2023-03-23T00:28:37;15.67;;;12.17;;
2522;SDS011;1272;53.332;9.860;2023-03-23T00:31:05;17.80;;;12.40;;
2522;SDS011;1272;53.332;9.860;2023-03-23T00:33:33;15.27;;;12.47;;
2522;SDS011;1272;53.332;9.860;2023-03-23T00:36:03;14.40;;;12.00;;
2522;SDS011;1272;53.332;9.860;2023-03-23T00:38:30;16.30;;;12.50;;
2522;SDS011;1272;53.332;9.860;2023-03-23T00:40:56;15.60;;;12.90;;
2522;SDS011;1272;53.332;9.860;2023-03-23T00:43:23;16.23;;;12.17;;
2522;SDS011;1272;53.332;9.860;2023-03-23T00:45:53;17.80;;;12.50;;
2522;SDS011;1272;53.332;9.860;2023-03-23T00:48:20;12.83;;;11.57;;
2522;SDS011;1272;53.332;9.860;2023-03-23T00:50:48;12.77;;;11.47;;
2522;SDS011;1272;53.332;9.860;2023-03-23T00:53:14;15.10;;;11.93;;
2522;SDS011;1272;53.332;9.860;2023-03-23T00:55:41;13.77;;;12.13;;
2522;SDS011;1272;53.332;9.860;2023-03-23T00:58:08;15.97;;;11.47;;
2522;SDS011;1272;53.332;9.860;2023-03-23T01:00:34;14.30;;;12.40;;
2522;SDS011;1272;53.332;9.860;2023-03-23T01:03:00;16.60;;;12.00;;
2522;SDS011;1272;53.332;9.860;2023-03-23T01:05:26;13.03;;;11.20;;
2522;SDS011;1272;53.332;9.860;2023-03-23T01:07:57;15.53;;;12.10;;
2522;SDS011;1272;53.332;9.860;2023-03-23T01:10:23;15.00;;;12.07;;
2522;SDS011;1272;53.332;9.860;2023-03-23T01:12:51;16.20;;;11.47;;
2522;SDS011;1272;53.332;9.860;2023-03-23T01:15:17;14.57;;;12.80;;
2522;SDS011;1272;53.332;9.860;2023-03-23T01:17:44;15.50;;;12.03;;
2522;SDS011;1272;53.332;9.860;2023-03-23T01:20:11;15.43;;;12.03;;
2522;SDS011;1272;53.332;9.860;2023-03-23T01:22:39;12.43;;;11.13;;
2522;SDS011;1272;53.332;9.860;2023-03-23T01:25:06;12.67;;;10.80;;
2522;SDS011;1272;53.332;9.860;2023-03-23T01:27:32;12.30;;;11.00;;
2522;SDS011;1272;53.332;9.860;2023-03-23T01:29:58;12.10;;;10.90;;
2522;SDS011;1272;53.332;9.860;2023-03-23T01:32:24;15.53;;;11.70;;
2522;SDS011;1272;53.332;9.860;2023-03-23T01:34:50;15.60;;;11.20;;
2522;SDS011;1272;53.332;9.860;2023-03-23T01:37:16;16.03;;;11.67;;
2522;SDS011;1272;53.332;9.860;2023-03-23T01:39:42;15.23;;;11.33;;
2522;SDS011;1272;53.332;9.860;2023-03-23T01:42:11;12.20;;;10.53;;
2522;SDS011;1272;53.332;9.860;2023-03-23T01:47:03;11.50;;;10.30;;
2522;SDS011;1272;53.332;9.860;2023-03-23T01:49:30;12.67;;;11.33;;
2522;SDS011;1272;53.332;9.860;2023-03-23T01:52:01;14.13;;;11.40;;
2522;SDS011;1272;53.332;9.860;2023-03-23T01:54:29;14.30;;;10.97;;
2522;SDS011;1272;53.332;9.860;2023-03-23T01:56:59;12.30;;;10.57;;
2522;SDS011;1272;53.332;9.860;2023-03-23T01:59:32;12.97;;;11.67;;
2522;SDS011;1272;53.332;9.860;2023-03-23T02:02:00;14.20;;;11.13;;
2522;SDS011;1272;53.332;9.860;2023-03-23T02:04:27;12.40;;;10.40;;
2522;SDS011;1272;53.332;9.860;2023-03-23T02:06:54;12.10;;;10.40;;
2522;SDS011;1272;53.332;9.860;2023-03-23T02:09:24;12.50;;;11.20;;
2522;SDS011;1272;53.332;9.860;2023-03-23T02:11:50;14.10;;;12.20;;
2522;SDS011;1272;53.332;9.860;2023-03-23T02:14:18;16.73;;;11.30;;
2522;SDS011;1272;53.332;9.860;2023-03-23T02:35:50;13.33;;;11.97;;
2522;SDS011;1272;53.332;9.860;2023-03-23T02:38:19;13.80;;;12.33;;
2522;SDS011;1272;53.332;9.860;2023-03-23T02:40:51;13.93;;;12.53;;
2522;SDS011;1272;53.332;9.860;2023-03-23T02:43:20;13.33;;;12.03;;
2522;SDS011;1272;53.332;9.860;2023-03-23T02:45:49;13.27;;;11.87;;
2522;SDS011;1272;53.332;9.860;2023-03-23T02:48:17;15.23;;;12.10;;
2522;SDS011;1272;53.332;9.860;2023-03-23T02:50:47;12.70;;;11.40;;
2522;SDS011;1272;53.332;9.860;2023-03-23T02:53:17;13.33;;;12.03;;
2522;SDS011;1272;53.332;9.860;2023-03-23T02:55:46;13.37;;;12.00;;
2522;SDS011;1272;53.332;9.860;2023-03-23T02:58:13;14.67;;;12.40;;
2522;SDS011;1272;53.332;9.860;2023-03-23T03:00:39;13.10;;;11.80;;
2522;SDS011;1272;53.332;9.860;2023-03-23T03:03:07;14.23;;;11.60;;
2522;SDS011;1272;53.332;9.860;2023-03-23T03:05:48;13.00;;;11.70;;
2522;SDS011;1272;53.332;9.860;2023-03-23T03:11:14;13.80;;;12.40;;
2522;SDS011;1272;53.332;9.860;2023-03-23T03:13:46;16.37;;;13.27;;
2522;SDS011;1272;53.332;9.860;2023-03-23T03:16:23;15.37;;;13.73;;
2522;SDS011;1272;53.332;9.860;2023-03-23T03:21:25;15.43;;;12.77;;
2522;SDS011;1272;53.332;9.860;2023-03-23T03:23:54;15.90;;;13.60;;
2522;SDS011;1272;53.332;9.860;2023-03-23T03:26:24;15.97;;;13.70;;
2522;SDS011;1272;53.332;9.860;2023-03-23T03:28:51;16.53;;;13.60;;
2522;SDS011;1272;53.332;9.860;2023-03-23T03:31:19;14.90;;;13.40;;
2522;SDS011;1272;53.332;9.860;2023-03-23T03:33:49;15.13;;;12.77;;
2522;SDS011;1272;53.332;9.860;2023-03-23T03:36:20;16.47;;;13.23;;
2522;SDS011;1272;53.332;9.860;2023-03-23T03:38:50;15.93;;;13.23;;
2522;SDS011;1272;53.332;9.860;2023-03-23T03:41:16;14.90;;;13.00;;
2522;SDS011;1272;53.332;9.860;2023-03-23T03:43:43;12.97;;;11.40;;
2522;SDS011;1272;53.332;9.860;2023-03-23T03:46:09;14.50;;;13.00;;
2522;SDS011;1272;53.332;9.860;2023-03-23T03:48:35;13.07;;;11.87;;
2522;SDS011;1272;53.332;9.860;2023-03-23T03:51:01;15.17;;;13.67;;
2522;SDS011;1272;53.332;9.860;2023-03-23T03:53:27;14.97;;;13.40;;
2522;SDS011;1272;53.332;9.860;2023-03-23T03:55:53;15.03;;;13.43;;
2522;SDS011;1272;53.332;9.860;2023-03-23T03:58:25;17.10;;;14.10;;
2522;SDS011;1272;53.332;9.860;2023-03-23T04:00:56;15.00;;;13.60;;
2522;SDS011;1272;53.332;9.860;2023-03-23T04:03:23;15.73;;;13.20;;
2522;SDS011;1272;53.332;9.860;2023-03-23T04:05:50;15.23;;;13.70;;
2522;SDS011;1272;53.332;9.860;2023-03-23T04:08:16;17.87;;;13.20;;
2522;SDS011;1272;53.332;9.860;2023-03-23T04:10:42;15.13;;;13.20;;
2522;SDS011;1272;53.332;9.860;2023-03-23T04:13:09;15.33;;;13.73;;
2522;SDS011;1272;53.332;9.860;2023-03-23T04:15:34;19.00;;;13.47;;
2522;SDS011;1272;53.332;9.860;2023-03-23T04:18:00;15.10;;;13.60;;
2522;SDS011;1272;53.332;9.860;2023-03-23T04:20:26;16.00;;;13.90;;
2522;SDS011;1272;53.332;9.860;2023-03-23T04:22:52;16.90;;;14.70;;
2522;SDS011;1272;53.332;9.860;2023-03-23T04:25:20;14.73;;;13.20;;
2522;SDS011;1272;53.332;9.860;2023-03-23T04:27:49;14.40;;;12.70;;
2522;SDS011;1272;53.332;9.860;2023-03-23T04:30:22;15.80;;;12.50;;
2522;SDS011;1272;53.332;9.860;2023-03-23T04:32:50;15.20;;;13.20;;
2522;SDS011;1272;53.332;9.860;2023-03-23T04:35:20;14.70;;;12.47;;
2522;SDS011;1272;53.332;9.860;2023-03-23T04:37:47;13.53;;;12.23;;
2522;SDS011;1272;53.332;9.860;2023-03-23T04:40:15;15.10;;;13.60;;
2522;SDS011;1272;53.332;9.860;2023-03-23T04:42:42;14.10;;;12.60;;
2522;SDS011;1272;53.332;9.860;2023-03-23T04:45:15;14.60;;;12.10;;
2522;SDS011;1272;53.332;9.860;2023-03-23T04:47:46;13.43;;;12.13;;
2522;SDS011;1272;53.332;9.860;2023-03-23T04:50:18;12.90;;;11.40;;
2522;SDS011;1272;53.332;9.860;2023-03-23T04:52:49;12.40;;;11.03;;
2522;SDS011;1272;53.332;9.860;2023-03-23T04:55:16;12.37;;;10.03;;
2522;SDS011;1272;53.332;9.860;2023-03-23T04:57:42;12.93;;;11.40;;
2522;SDS011;1272;53.332;9.860;2023-03-23T05:00:09;12.53;;;11.30;;
2522;SDS011;1272;53.332;9.860;2023-03-23T05:02:41;12.03;;;10.10;;
2522;SDS011;1272;53.332;9.860;2023-03-23T05:05:09;10.87;;;9.80;;
2522;SDS011;1272;53.332;9.860;2023-03-23T05:07:39;10.70;;;9.60;;
2522;SDS011;1272;53.332;9.860;2023-03-23T05:10:07;11.70;;;9.70;;
2522;SDS011;1272;53.332;9.860;2023-03-23T05:12:34;11.63;;;9.37;;
2522;SDS011;1272;53.332;9.860;2023-03-23T05:15:00;9.13;;;8.23;;
2522;SDS011;1272;53.332;9.860;2023-03-23T05:17:26;9.80;;;8.40;;
2522;SDS011;1272;53.332;9.860;2023-03-23T05:19:52;9.27;;;8.37;;
2522;SDS011;1272;53.332;9.860;2023-03-23T05:22:18;9.77;;;8.77;;
2522;SDS011;1272;53.332;9.860;2023-03-23T05:24:46;9.87;;;8.83;;
2522;SDS011;1272;53.332;9.860;2023-03-23T05:27:12;12.93;;;7.93;;
2522;SDS011;1272;53.332;9.860;2023-03-23T05:29:39;8.87;;;7.97;;
2522;SDS011;1272;53.332;9.860;2023-03-23T05:32:08;8.23;;;7.53;;
2522;SDS011;1272;53.332;9.860;2023-03-23T05:34:35;8.77;;;7.97;;
2522;SDS011;1272;53.332;9.860;2023-03-23T05:37:01;8.27;;;7.33;;
2522;SDS011;1272;53.332;9.860;2023-03-23T05:39:29;8.07;;;6.93;;
2522;SDS011;1272;53.332;9.860;2023-03-23T05:41:56;9.13;;;7.47;;
2522;SDS011;1272;53.332;9.860;2023-03-23T05:44:22;12.27;;;7.43;;
2522;SDS011;1272;53.332;9.860;2023-03-23T05:46:48;6.67;;;6.03;;
2522;SDS011;1272;53.332;9.860;2023-03-23T05:49:14;6.77;;;6.17;;
2522;SDS011;1272;53.332;9.860;2023-03-23T05:51:41;6.60;;;6.00;;
2522;SDS011;1272;53.332;9.860;2023-03-23T05:54:09;9.10;;;6.17;;
2522;SDS011;1272;53.332;9.860;2023-03-23T05:56:35;6.07;;;5.50;;
2522;SDS011;1272;53.332;9.860;2023-03-23T05:59:01;5.77;;;5.20;;
2522;SDS011;1272;53.332;9.860;2023-03-23T06:01:27;6.70;;;6.10;;
2522;SDS011;1272;53.332;9.860;2023-03-23T06:03:53;6.47;;;5.87;;
2522;SDS011;1272;53.332;9.860;2023-03-23T06:06:26;9.30;;;6.27;;
2522;SDS011;1272;53.332;9.860;2023-03-23T06:08:54;6.80;;;6.20;;
2522;SDS011;1272;53.332;9.860;2023-03-23T06:11:20;7.30;;;5.90;;
2522;SDS011;1272;53.332;9.860;2023-03-23T06:13:46;5.90;;;5.30;;
2522;SDS011;1272;53.332;9.860;2023-03-23T06:16:13;5.27;;;4.77;;
2522;SDS011;1272;53.332;9.860;2023-03-23T06:18:39;5.90;;;5.37;;
2522;SDS011;1272;53.332;9.860;2023-03-23T06:21:06;5.50;;;5.00;;
2522;SDS011;1272;53.332;9.860;2023-03-23T06:23:33;6.47;;;5.87;;
2522;SDS011;1272;53.332;9.860;2023-03-23T06:26:00;5.00;;;4.50;;
2522;SDS011;1272;53.332;9.860;2023-03-23T06:28:28;5.20;;;4.80;;
2522;SDS011;1272;53.332;9.860;2023-03-23T06:30:58;5.27;;;4.63;;
2522;SDS011;1272;53.332;9.860;2023-03-23T06:33:31;5.40;;;4.73;;
2522;SDS011;1272;53.332;9.860;2023-03-23T06:36:00;4.47;;;4.07;;
2522;SDS011;1272;53.332;9.860;2023-03-23T06:38:27;4.67;;;4.37;;
2522;SDS011;1272;53.332;9.860;2023-03-23T06:40:53;5.70;;;4.67;;
2522;SDS011;1272;53.332;9.860;2023-03-23T06:43:19;4.97;;;4.47;;
2522;SDS011;1272;53.332;9.860;2023-03-23T06:45:45;5.30;;;4.80;;
2522;SDS011;1272;53.332;9.860;2023-03-23T06:48:11;4.73;;;4.10;;
2522;SDS011;1272;53.332;9.860;2023-03-23T06:50:37;4.73;;;4.27;;
2522;SDS011;1272;53.332;9.860;2023-03-23T06:53:03;5.13;;;4.67;;
2522;SDS011;1272;53.332;9.860;2023-03-23T06:55:29;4.73;;;4.30;;
2522;SDS011;1272;53.332;9.860;2023-03-23T06:57:54;4.50;;;4.20;;
2522;SDS011;1272;53.332;9.860;2023-03-23T07:00:20;4.27;;;3.97;;
2522;SDS011;1272;53.332;9.860;2023-03-23T07:02:46;4.43;;;4.03;;
2522;SDS011;1272;53.332;9.860;2023-03-23T07:05:12;4.53;;;4.23;;
2522;SDS011;1272;53.332;9.860;2023-03-23T07:07:39;4.40;;;4.10;;
2522;SDS011;1272;53.332;9.860;2023-03-23T07:10:06;5.47;;;4.10;;
2522;SDS011;1272;53.332;9.860;2023-03-23T07:12:34;4.30;;;4.00;;
2522;SDS011;1272;53.332;9.860;2023-03-23T07:15:01;4.43;;;4.00;;
2522;SDS011;1272;53.332;9.860;2023-03-23T07:17:27;4.00;;;3.60;;
2522;SDS011;1272;53.332;9.860;2023-03-23T07:19:53;6.97;;;4.40;;
2522;SDS011;1272;53.332;9.860;2023-03-23T07:22:19;5.03;;;4.57;;
2522;SDS011;1272;53.332;9.860;2023-03-23T07:24:46;4.47;;;4.13;;
2522;SDS011;1272;53.332;9.860;2023-03-23T07:27:11;4.23;;;3.93;;
2522;SDS011;1272;53.332;9.860;2023-03-23T07:29:37;4.60;;;4.20;;
2522;SDS011;1272;53.332;9.860;2023-03-23T07:32:04;5.27;;;4.87;;
2522;SDS011;1272;53.332;9.860;2023-03-23T07:34:30;4.60;;;4.13;;
2522;SDS011;1272;53.332;9.860;2023-03-23T07:36:57;5.40;;;5.00;;
2522;SDS011;1272;53.332;9.860;2023-03-23T07:39:23;4.27;;;3.97;;
2522;SDS011;1272;53.332;9.860;2023-03-23T07:41:49;5.37;;;5.07;;
2522;SDS011;1272;53.332;9.860;2023-03-23T07:44:15;4.53;;;4.13;;
2522;SDS011;1272;53.332;9.860;2023-03-23T07:46:41;4.87;;;4.57;;
2522;SDS011;1272;53.332;9.860;2023-03-23T07:49:07;4.47;;;4.23;;
2522;SDS011;1272;53.332;9.860;2023-03-23T07:51:34;5.60;;;5.10;;
2522;SDS011;1272;53.332;9.860;2023-03-23T07:54:00;5.17;;;4.77;;
2522;SDS011;1272;53.332;9.860;2023-03-23T07:56:27;4.90;;;4.50;;
2522;SDS011;1272;53.332;9.860;2023-03-23T07:58:54;5.33;;;4.83;;
2522;SDS011;1272;53.332;9.860;2023-03-23T08:01:19;5.00;;;4.57;;
2522;SDS011;1272;53.332;9.860;2023-03-23T08:03:46;5.43;;;4.93;;
2522;SDS011;1272;53.332;9.860;2023-03-23T08:06:12;4.57;;;4.17;;
2522;SDS011;1272;53.332;9.860;2023-03-23T08:08:37;5.13;;;4.77;;
2522;SDS011;1272;53.332;9.860;2023-03-23T08:11:05;4.73;;;4.40;;
2522;SDS011;1272;53.332;9.860;2023-03-23T08:13:31;5.10;;;4.70;;
2522;SDS011;1272;53.332;9.860;2023-03-23T08:15:58;4.13;;;3.83;;
2522;SDS011;1272;53.332;9.860;2023-03-23T08:18:25;4.77;;;4.30;;
2522;SDS011;1272;53.332;9.860;2023-03-23T08:20:52;4.80;;;4.50;;
2522;SDS011;1272;53.332;9.860;2023-03-23T08:23:18;6.80;;;5.20;;
2522;SDS011;1272;53.332;9.860;2023-03-23T08:25:45;6.60;;;5.10;;
2522;SDS011;1272;53.332;9.860;2023-03-23T08:28:11;5.77;;;5.27;;
2522;SDS011;1272;53.332;9.860;2023-03-23T08:30:39;5.30;;;4.90;;
2522;SDS011;1272;53.332;9.860;2023-03-23T08:33:06;4.40;;;3.60;;
2522;SDS011;1272;53.332;9.860;2023-03-23T08:35:35;5.37;;;3.07;;
2522;SDS011;1272;53.332;9.860;2023-03-23T08:38:01;2.13;;;2.00;;
2522;SDS011;1272;53.332;9.860;2023-03-23T08:40:26;2.20;;;1.67;;
2522;SDS011;1272;53.332;9.860;2023-03-23T08:42:52;3.10;;;1.30;;
2522;SDS011;1272;53.332;9.860;2023-03-23T08:45:23;2.20;;;1.70;;
2522;SDS011;1272;53.332;9.860;2023-03-23T08:47:50;2.07;;;1.70;;
2522;SDS011;1272;53.332;9.860;2023-03-23T08:50:21;3.40;;;2.43;;
2522;SDS011;1272;53.332;9.860;2023-03-23T08:52:50;2.00;;;1.90;;
2522;SDS011;1272;53.332;9.860;2023-03-23T08:55:18;3.27;;;1.87;;
2522;SDS011;1272;53.332;9.860;2023-03-23T08:57:44;1.90;;;1.80;;
2522;SDS011;1272;53.332;9.860;2023-03-23T09:00:12;2.00;;;1.47;;
2522;SDS011;1272;53.332;9.860;2023-03-23T09:02:48;4.30;;;1.50;;
2522;SDS011;1272;53.332;9.860;2023-03-23T09:05:16;2.30;;;1.60;;
2522;SDS011;1272;53.332;9.860;2023-03-23T09:07:45;3.87;;;1.70;;
2522;SDS011;1272;53.332;9.860;2023-03-23T09:10:13;3.03;;;1.50;;
2522;SDS011;1272;53.332;9.860;2023-03-23T09:12:44;2.50;;;1.70;;
2522;SDS011;1272;53.332;9.860;2023-03-23T09:15:12;1.70;;;1.60;;
2522;SDS011;1272;53.332;9.860;2023-03-23T09:17:41;4.50;;;1.87;;
2522;SDS011;1272;53.332;9.860;2023-03-23T09:20:12;3.23;;;1.73;;
2522;SDS011;1272;53.332;9.860;2023-03-23T09:22:42;3.33;;;1.93;;
2522;SDS011;1272;53.332;9.860;2023-03-23T09:25:10;4.67;;;2.30;;
2522;SDS011;1272;53.332;9.860;2023-03-23T09:27:38;2.80;;;2.17;;
2522;SDS011;1272;53.332;9.860;2023-03-23T09:30:06;3.60;;;2.63;;
2522;SDS011;1272;53.332;9.860;2023-03-23T09:32:33;4.17;;;2.30;;
2522;SDS011;1272;53.332;9.860;2023-03-23T09:35:04;2.83;;;2.50;;
2522;SDS011;1272;53.332;9.860;2023-03-23T09:37:36;3.80;;;3.10;;
2522;SDS011;1272;53.332;9.860;2023-03-23T09:40:03;5.73;;;2.70;;
2522;SDS011;1272;53.332;9.860;2023-03-23T09:48:38;6.40;;;2.90;;
2522;SDS011;1272;53.332;9.860;2023-03-23T09:56:39;8.73;;;3.40;;
2522;SDS011;1272;53.332;9.860;2023-03-23T09:59:11;5.73;;;2.77;;
2522;SDS011;1272;53.332;9.860;2023-03-23T10:01:40;6.40;;;3.43;;
2522;SDS011;1272;53.332;9.860;2023-03-23T10:07:23;10.27;;;3.10;;
2522;SDS011;1272;53.332;9.860;2023-03-23T10:09:56;7.00;;;3.00;;
2522;SDS011;1272;53.332;9.860;2023-03-23T10:22:45;3.20;;;2.80;;
2522;SDS011;1272;53.332;9.860;2023-03-23T10:25:21;8.10;;;3.50;;
2522;SDS011;1272;53.332;9.860;2023-03-23T10:28:09;8.70;;;3.33;;
2522;SDS011;1272;53.332;9.860;2023-03-23T10:30:39;8.27;;;3.07;;
2522;SDS011;1272;53.332;9.860;2023-03-23T10:38:48;15.90;;;5.20;;
2522;SDS011;1272;53.332;9.860;2023-03-23T10:41:16;12.10;;;2.80;;
2522;SDS011;1272;53.332;9.860;2023-03-23T10:43:44;7.90;;;3.00;;
2522;SDS011;1272;53.332;9.860;2023-03-23T10:48:54;6.23;;;2.77;;
2522;SDS011;1272;53.332;9.860;2023-03-23T10:51:35;15.43;;;3.70;;
2522;SDS011;1272;53.332;9.860;2023-03-23T10:54:04;5.60;;;3.13;;
2522;SDS011;1272;53.332;9.860;2023-03-23T10:56:35;10.73;;;3.60;;
2522;SDS011;1272;53.332;9.860;2023-03-23T10:59:13;8.37;;;3.13;;
2522;SDS011;1272;53.332;9.860;2023-03-23T11:02:00;5.37;;;3.47;;
2522;SDS011;1272;53.332;9.860;2023-03-23T11:04:35;6.73;;;3.67;;
2522;SDS011;1272;53.332;9.860;2023-03-23T11:07:01;8.43;;;3.37;;
2522;SDS011;1272;53.332;9.860;2023-03-23T11:09:50;5.33;;;3.17;;
2522;SDS011;1272;53.332;9.860;2023-03-23T11:12:23;9.27;;;4.00;;
2522;SDS011;1272;53.332;9.860;2023-03-23T11:14:49;5.77;;;3.10;;
2522;SDS011;1272;53.332;9.860;2023-03-23T11:17:33;6.13;;;2.80;;
2522;SDS011;1272;53.332;9.860;2023-03-23T11:20:09;9.03;;;3.30;;
2522;SDS011;1272;53.332;9.860;2023-03-23T11:22:36;5.23;;;2.47;;
2522;SDS011;1272;53.332;9.860;2023-03-23T11:25:03;6.27;;;3.17;;
2522;SDS011;1272;53.332;9.860;2023-03-23T11:27:30;4.90;;;2.80;;
2522;SDS011;1272;53.332;9.860;2023-03-23T11:30:11;6.77;;;3.27;;
2522;SDS011;1272;53.332;9.860;2023-03-23T11:32:47;7.57;;;2.57;;
2522;SDS011;1272;53.332;9.860;2023-03-23T11:35:17;5.43;;;2.63;;
2522;SDS011;1272;53.332;9.860;2023-03-23T11:37:56;7.10;;;2.50;;
2522;SDS011;1272;53.332;9.860;2023-03-23T11:40:27;5.77;;;2.60;;
2522;SDS011;1272;53.332;9.860;2023-03-23T11:42:57;5.00;;;3.30;;
2522;SDS011;1272;53.332;9.860;2023-03-23T11:50:49;8.30;;;3.10;;
2522;SDS011;1272;53.332;9.860;2023-03-23T11:56:24;8.10;;;2.83;;
2522;SDS011;1272;53.332;9.860;2023-03-23T11:58:56;7.03;;;3.40;;
2522;SDS011;1272;53.332;9.860;2023-03-23T12:04:07;6.80;;;3.10;;
2522;SDS011;1272;53.332;9.860;2023-03-23T12:16:03;5.60;;;3.60;;
2522;SDS011;1272;53.332;9.860;2023-03-23T12:26:30;11.07;;;4.10;;
2522;SDS011;1272;53.332;9.860;2023-03-23T12:46:18;8.97;;;4.03;;
2522;SDS011;1272;53.332;9.860;2023-03-23T12:48:54;6.80;;;3.60;;
2522;SDS011;1272;53.332;9.860;2023-03-23T12:51:26;13.43;;;3.97;;
2522;SDS011;1272;53.332;9.860;2023-03-23T12:54:19;6.97;;;3.67;;
2522;SDS011;1272;53.332;9.860;2023-03-23T12:57:01;7.03;;;3.60;;
2522;SDS011;1272;53.332;9.860;2023-03-23T13:02:23;4.63;;;2.90;;
2522;SDS011;1272;53.332;9.860;2023-03-23T13:04:59;4.57;;;3.40;;
2522;SDS011;1272;53.332;9.860;2023-03-23T13:07:36;8.87;;;3.57;;
2522;SDS011;1272;53.332;9.860;2023-03-23T13:10:30;3.47;;;3.17;;
2522;SDS011;1272;53.332;9.860;2023-03-23T13:13:16;4.07;;;2.90;;
2522;SDS011;1272;53.332;9.860;2023-03-23T13:18:30;3.93;;;3.07;;
2522;SDS011;1272;53.332;9.860;2023-03-23T13:23:42;3.30;;;2.93;;
2522;SDS011;1272;53.332;9.860;2023-03-23T13:26:18;4.13;;;2.80;;
2522;SDS011;1272;53.332;9.860;2023-03-23T13:28:57;5.60;;;2.40;;
2522;SDS011;1272;53.332;9.860;2023-03-23T13:33:57;2.43;;;2.33;;
2522;SDS011;1272;53.332;9.860;2023-03-23T13:36:37;4.30;;;2.17;;
2522;SDS011;1272;53.332;9.860;2023-03-23T14:03:38;2.03;;;1.93;;
2522;SDS011;1272;53.332;9.860;2023-03-23T14:06:04;2.00;;;1.90;;
2522;SDS011;1272;53.332;9.860;2023-03-23T14:10:59;4.60;;;2.27;;
2522;SDS011;1272;53.332;9.860;2023-03-23T14:16:13;3.47;;;2.10;;
2522;SDS011;1272;53.332;9.860;2023-03-23T14:18:52;3.50;;;1.80;;
2522;SDS011;1272;53.332;9.860;2023-03-23T14:21:31;5.47;;;2.40;;
2522;SDS011;1272;53.332;9.860;2023-03-23T14:24:00;2.90;;;1.87;;
2522;SDS011;1272;53.332;9.860;2023-03-23T14:26:27;2.83;;;1.73;;
2522;SDS011;1272;53.332;9.860;2023-03-23T14:28:53;3.00;;;2.17;;
2522;SDS011;1272;53.332;9.860;2023-03-23T14:31:23;2.23;;;1.60;;
2522;SDS011;1272;53.332;9.860;2023-03-23T14:33:51;2.50;;;2.10;;
2522;SDS011;1272;53.332;9.860;2023-03-23T14:36:24;1.97;;;1.77;;
2522;SDS011;1272;53.332;9.860;2023-03-23T14:41:47;8.10;;;2.50;;
2522;SDS011;1272;53.332;9.860;2023-03-23T14:44:15;2.63;;;2.43;;
2522;SDS011;1272;53.332;9.860;2023-03-23T14:46:44;3.77;;;1.90;;
2522;SDS011;1272;53.332;9.860;2023-03-23T14:49:12;2.00;;;1.90;;
2522;SDS011;1272;53.332;9.860;2023-03-23T14:51:52;5.40;;;2.17;;
2522;SDS011;1272;53.332;9.860;2023-03-23T14:54:23;2.70;;;1.73;;
2522;SDS011;1272;53.332;9.860;2023-03-23T14:56:53;4.37;;;2.00;;
2522;SDS011;1272;53.332;9.860;2023-03-23T14:59:20;2.30;;;2.10;;
2522;SDS011;1272;53.332;9.860;2023-03-23T15:01:47;2.10;;;1.80;;
2522;SDS011;1272;53.332;9.860;2023-03-23T15:04:17;1.97;;;1.87;;
2522;SDS011;1272;53.332;9.860;2023-03-23T15:06:46;2.10;;;1.93;;
2522;SDS011;1272;53.332;9.860;2023-03-23T15:09:20;2.30;;;2.00;;
2522;SDS011;1272;53.332;9.860;2023-03-23T15:11:58;2.20;;;1.60;;
2522;SDS011;1272;53.332;9.860;2023-03-23T15:14:30;5.77;;;2.30;;
2522;SDS011;1272;53.332;9.860;2023-03-23T15:17:00;2.87;;;1.90;;
2522;SDS011;1272;53.332;9.860;2023-03-23T15:19:34;3.30;;;1.57;;
2522;SDS011;1272;53.332;9.860;2023-03-23T15:27:29;4.20;;;1.83;;
2522;SDS011;1272;53.332;9.860;2023-03-23T15:29:58;4.63;;;1.80;;
2522;SDS011;1272;53.332;9.860;2023-03-23T15:32:39;5.43;;;2.03;;
2522;SDS011;1272;53.332;9.860;2023-03-23T15:35:41;3.40;;;1.63;;
2522;SDS011;1272;53.332;9.860;2023-03-23T15:38:01;2.23;;;1.63;;
2522;SDS011;1272;53.332;9.860;2023-03-23T15:40:32;2.67;;;2.10;;
2522;SDS011;1272;53.332;9.860;2023-03-23T15:48:52;3.63;;;2.10;;
2522;SDS011;1272;53.332;9.860;2023-03-23T15:51:23;6.00;;;1.83;;
2522;SDS011;1272;53.332;9.860;2023-03-23T15:53:52;7.40;;;2.00;;
2522;SDS011;1272;53.332;9.860;2023-03-23T15:56:19;6.23;;;2.10;;
2522;SDS011;1272;53.332;9.860;2023-03-23T15:58:45;4.90;;;2.40;;
2522;SDS011;1272;53.332;9.860;2023-03-23T16:01:15;1.70;;;1.60;;
2522;SDS011;1272;53.332;9.860;2023-03-23T16:03:55;3.73;;;1.70;;
2522;SDS011;1272;53.332;9.860;2023-03-23T16:06:22;2.70;;;1.50;;
2522;SDS011;1272;53.332;9.860;2023-03-23T16:08:50;5.73;;;3.10;;
2522;SDS011;1272;53.332;9.860;2023-03-23T16:11:17;2.13;;;1.70;;
2522;SDS011;1272;53.332;9.860;2023-03-23T16:13:43;5.87;;;1.73;;
2522;SDS011;1272;53.332;9.860;2023-03-23T16:16:14;5.97;;;2.17;;
2522;SDS011;1272;53.332;9.860;2023-03-23T16:18:41;4.80;;;2.47;;
2522;SDS011;1272;53.332;9.860;2023-03-23T16:21:07;3.67;;;2.93;;
2522;SDS011;1272;53.332;9.860;2023-03-23T16:23:33;3.20;;;2.00;;
2522;SDS011;1272;53.332;9.860;2023-03-23T16:25:59;2.90;;;1.70;;
2522;SDS011;1272;53.332;9.860;2023-03-23T16:28:28;2.80;;;1.30;;
2522;SDS011;1272;53.332;9.860;2023-03-23T16:30:56;3.07;;;1.90;;
2522;SDS011;1272;53.332;9.860;2023-03-23T16:33:22;4.40;;;2.00;;
2522;SDS011;1272;53.332;9.860;2023-03-23T16:35:47;4.33;;;2.17;;
2522;SDS011;1272;53.332;9.860;2023-03-23T16:38:14;3.77;;;2.77;;
2522;SDS011;1272;53.332;9.860;2023-03-23T16:40:40;3.37;;;2.10;;
2522;SDS011;1272;53.332;9.860;2023-03-23T16:43:07;2.90;;;2.03;;
2522;SDS011;1272;53.332;9.860;2023-03-23T16:45:34;1.80;;;1.70;;
2522;SDS011;1272;53.332;9.860;2023-03-23T16:48:00;1.93;;;1.60;;
2522;SDS011;1272;53.332;9.860;2023-03-23T16:50:27;3.47;;;1.90;;
2522;SDS011;1272;53.332;9.860;2023-03-23T16:52:53;2.53;;;1.80;;
2522;SDS011;1272;53.332;9.860;2023-03-23T16:55:20;2.33;;;1.53;;
2522;SDS011;1272;53.332;9.860;2023-03-23T16:57:46;3.80;;;1.70;;
2522;SDS011;1272;53.332;9.860;2023-03-23T17:00:13;3.27;;;1.97;;
2522;SDS011;1272;53.332;9.860;2023-03-23T17:02:41;7.17;;;3.43;;
2522;SDS011;1272;53.332;9.860;2023-03-23T17:05:08;2.93;;;2.63;;
2522;SDS011;1272;53.332;9.860;2023-03-23T17:07:38;2.07;;;1.63;;
2522;SDS011;1272;53.332;9.860;2023-03-23T17:10:05;2.30;;;2.10;;
2522;SDS011;1272;53.332;9.860;2023-03-23T17:12:32;5.77;;;3.33;;
2522;SDS011;1272;53.332;9.860;2023-03-23T17:14:59;4.13;;;3.03;;
2522;SDS011;1272;53.332;9.860;2023-03-23T17:17:24;3.20;;;2.90;;
2522;SDS011;1272;53.332;9.860;2023-03-23T17:19:50;4.03;;;2.63;;
2522;SDS011;1272;53.332;9.860;2023-03-23T17:22:16;3.10;;;2.20;;
2522;SDS011;1272;53.332;9.860;2023-03-23T17:24:42;3.03;;;2.23;;
2522;SDS011;1272;53.332;9.860;2023-03-23T17:27:08;3.77;;;2.93;;
2522;SDS011;1272;53.332;9.860;2023-03-23T17:29:33;2.17;;;2.03;;
2522;SDS011;1272;53.332;9.860;2023-03-23T17:31:59;3.63;;;3.00;;
2522;SDS011;1272;53.332;9.860;2023-03-23T17:34:25;2.40;;;2.20;;
2522;SDS011;1272;53.332;9.860;2023-03-23T17:36:51;3.53;;;2.63;;
2522;SDS011;1272;53.332;9.860;2023-03-23T17:39:17;3.53;;;2.47;;
2522;SDS011;1272;53.332;9.860;2023-03-23T17:41:42;1.93;;;1.80;;
2522;SDS011;1272;53.332;9.860;2023-03-23T17:44:08;3.93;;;2.30;;
2522;SDS011;1272;53.332;9.860;2023-03-23T17:46:34;3.60;;;3.30;;
2522;SDS011;1272;53.332;9.860;2023-03-23T17:48:59;3.20;;;2.43;;
2522;SDS011;1272;53.332;9.860;2023-03-23T17:51:25;2.70;;;2.50;;
2522;SDS011;1272;53.332;9.860;2023-03-23T17:53:51;6.17;;;3.17;;
2522;SDS011;1272;53.332;9.860;2023-03-23T17:56:17;3.27;;;2.70;;
2522;SDS011;1272;53.332;9.860;2023-03-23T17:58:43;3.50;;;3.20;;